Time;durP1;ratioP1;P1;durP2;ratioP2;P2;SDS_P1;SDS_P2;PMS_P1;PMS_P2;Temp;Humidity;BMP_temperature;BMP_pressure;BME280_temperature;BME280_humidity;BME280_pressure;Samples;Min_cycle;Max_cycle;Signal;HPM_P1;HPM_P2
2021/04/03 00:02:12;;;;;;;28.52;16.75;;;;;;;;;;4976037;28;20031;-57
2021/04/03 00:04:39;;;;;;;27.40;17.20;;;;;;;;;;4975240;28;20022;-58
2021/04/03 00:07:05;;;;;;;31.25;18.20;;;;;;;;;;4975513;28;20062;-57
2021/04/03 00:09:31;;;;;;;30.83;17.75;;;;;;;;;;4975306;28;20026;-57
2021/04/03 00:11:57;;;;;;;32.90;19.88;;;;;;;;;;4974306;28;20055;-56
2021/04/03 00:14:23;;;;;;;32.08;17.55;;;;;;;;;;4974832;28;20098;-57
2021/04/03 00:16:49;;;;;;;28.83;16.55;;;;;;;;;;4974567;28;20054;-60
2021/04/03 00:19:15;;;;;;;31.15;16.85;;;;;;;;;;4975633;28;20027;-70
2021/04/03 00:21:42;;;;;;;27.27;16.65;;;;;;;;;;4975441;28;20346;-68
2021/04/03 00:24:08;;;;;;;27.05;15.60;;;;;;;;;;4975427;28;20058;-70
2021/04/03 00:26:34;;;;;;;26.30;14.55;;;;;;;;;;4975339;28;20520;-67
2021/04/03 00:29:00;;;;;;;28.08;15.45;;;;;;;;;;4975272;28;20026;-67
2021/04/03 00:31:26;;;;;;;29.25;18.33;;;;;;;;;;4975205;28;20030;-70
2021/04/03 00:33:53;;;;;;;26.77;16.50;;;;;;;;;;4976350;28;20030;-70
2021/04/03 00:36:19;;;;;;;29.33;17.15;;;;;;;;;;4981824;28;20046;-72
2021/04/03 00:38:45;;;;;;;25.25;15.18;;;;;;;;;;4981147;28;20073;-69
2021/04/03 00:41:11;;;;;;;25.58;15.38;;;;;;;;;;4980914;28;20027;-72
2021/04/03 00:43:37;;;;;;;28.50;16.40;;;;;;;;;;4980618;28;20463;-70
2021/04/03 00:46:03;;;;;;;31.35;15.77;;;;;;;;;;4974714;28;20038;-67
2021/04/03 00:48:29;;;;;;;30.63;17.45;;;;;;;;;;4975413;28;20417;-70
2021/04/03 00:50:55;;;;;;;31.08;17.83;;;;;;;;;;4974749;28;20027;-71
2021/04/03 00:53:23;;;;;;;30.08;18.70;;;;;;;;;;4974443;28;20023;-67
2021/04/03 00:55:49;;;;;;;27.58;17.38;;;;;;;;;;4975005;28;20073;-70
2021/04/03 00:58:16;;;;;;;26.33;16.80;;;;;;;;;;4974802;28;20037;-62
2021/04/03 01:00:42;;;;;;;30.83;18.58;;;;;;;;;;4974518;28;20019;-67
2021/04/03 01:03:08;;;;;;;29.77;19.05;;;;;;;;;;4974824;28;20057;-65
2021/04/03 01:05:36;;;;;;;27.20;18.10;;;;;;;;;;4975399;28;20399;-64
2021/04/03 01:08:02;;;;;;;31.38;19.20;;;;;;;;;;4974652;28;20050;-70
2021/04/03 01:10:29;;;;;;;30.77;19.00;;;;;;;;;;4974845;28;20409;-71
2021/04/03 01:13:01;;;;;;;32.05;19.40;;;;;;;;;;4974126;28;20022;-64
2021/04/03 01:15:34;;;;;;;29.48;18.98;;;;;;;;;;4974756;28;20110;-70
2021/04/03 01:18:03;;;;;;;29.88;16.88;;;;;;;;;;4974491;28;20042;-72
2021/04/03 01:20:36;;;;;;;30.58;18.08;;;;;;;;;;4974444;28;20066;-69
2021/04/03 01:23:22;;;;;;;29.38;18.25;;;;;;;;;;4974707;28;20027;-70
2021/04/03 01:26:06;;;;;;;24.88;15.98;;;;;;;;;;4954120;29;20051;-64
2021/04/03 01:28:32;;;;;;;25.15;17.67;;;;;;;;;;4952485;29;20063;-64
2021/04/03 01:30:58;;;;;;;23.25;15.50;;;;;;;;;;4952500;28;20039;-64
2021/04/03 01:33:26;;;;;;;26.00;16.73;;;;;;;;;;4952270;29;20098;-66
2021/04/03 01:35:58;;;;;;;23.77;14.63;;;;;;;;;;4952767;29;20039;-66
2021/04/03 01:38:31;;;;;;;24.00;16.88;;;;;;;;;;4937800;29;20561;-64
2021/04/03 01:40:58;;;;;;;23.20;16.35;;;;;;;;;;4902598;29;20032;-66
2021/04/03 01:43:26;;;;;;;23.33;15.70;;;;;;;;;;4934046;29;20044;-64
2021/04/03 01:45:55;;;;;;;32.60;18.93;;;;;;;;;;4933123;29;20219;-67
2021/04/03 01:48:22;;;;;;;27.27;16.90;;;;;;;;;;4933319;29;20282;-65
2021/04/03 01:50:48;;;;;;;28.02;17.98;;;;;;;;;;4933056;29;20036;-66
2021/04/03 01:53:15;;;;;;;28.33;17.50;;;;;;;;;;4933072;29;20036;-64
2021/04/03 01:55:41;;;;;;;27.48;17.35;;;;;;;;;;4933510;29;20055;-62
2021/04/03 01:58:08;;;;;;;25.70;16.70;;;;;;;;;;4933223;29;20038;-65
2021/04/03 02:00:34;;;;;;;26.73;17.55;;;;;;;;;;4932761;29;20031;-65
2021/04/03 02:03:00;;;;;;;27.20;17.80;;;;;;;;;;4955327;28;20105;-62
2021/04/03 02:05:27;;;;;;;25.63;17.25;;;;;;;;;;4973447;28;20023;-64
2021/04/03 02:07:53;;;;;;;25.98;17.98;;;;;;;;;;4972590;28;20030;-67
2021/04/03 02:10:24;;;;;;;28.88;18.50;;;;;;;;;;4973065;28;20089;-67
2021/04/03 02:12:50;;;;;;;25.40;17.42;;;;;;;;;;4972233;28;20026;-62
2021/04/03 02:15:16;;;;;;;27.70;17.17;;;;;;;;;;4973315;28;20126;-68
2021/04/03 02:17:44;;;;;;;25.15;17.10;;;;;;;;;;4973651;28;20043;-62
2021/04/03 02:20:11;;;;;;;28.40;18.10;;;;;;;;;;4971585;28;20029;-66
2021/04/03 02:22:37;;;;;;;29.48;18.90;;;;;;;;;;4973785;28;20025;-67
2021/04/03 02:25:05;;;;;;;27.45;17.00;;;;;;;;;;4973435;28;20035;-63
2021/04/03 02:27:32;;;;;;;27.15;17.80;;;;;;;;;;4973609;28;20097;-66
2021/04/03 02:30:11;;;;;;;28.67;18.40;;;;;;;;;;4972805;28;20034;-67
2021/04/03 02:32:37;;;;;;;26.33;16.73;;;;;;;;;;4973409;28;20022;-69
2021/04/03 02:35:03;;;;;;;27.55;17.67;;;;;;;;;;4973574;28;20465;-69
2021/04/03 02:37:29;;;;;;;28.08;17.83;;;;;;;;;;4973171;28;20026;-66
2021/04/03 02:39:55;;;;;;;30.90;19.17;;;;;;;;;;4973757;28;20469;-65
2021/04/03 02:42:22;;;;;;;23.17;16.70;;;;;;;;;;4974005;28;20415;-68
2021/04/03 02:45:04;;;;;;;30.08;18.73;;;;;;;;;;4974208;28;20472;-70
2021/04/03 02:47:40;;;;;;;28.90;19.08;;;;;;;;;;4973984;28;20034;-66
2021/04/03 02:50:08;;;;;;;27.67;18.05;;;;;;;;;;4973632;28;20102;-68
2021/04/03 02:52:35;;;;;;;32.03;18.42;;;;;;;;;;4973605;28;20030;-68
2021/04/03 02:55:02;;;;;;;28.63;17.65;;;;;;;;;;4973473;28;20030;-67
2021/04/03 02:57:30;;;;;;;27.27;18.42;;;;;;;;;;4973076;28;20042;-67
2021/04/03 02:59:58;;;;;;;28.17;18.73;;;;;;;;;;4973603;28;20126;-67
2021/04/03 03:02:25;;;;;;;26.50;17.52;;;;;;;;;;4973293;28;20035;-67
2021/04/03 03:04:52;;;;;;;30.48;19.15;;;;;;;;;;4972802;28;20380;-66
2021/04/03 03:07:19;;;;;;;29.00;18.73;;;;;;;;;;4973131;28;20035;-66
2021/04/03 03:09:48;;;;;;;30.00;19.17;;;;;;;;;;4972898;28;20054;-70
2021/04/03 03:12:14;;;;;;;;;;;;;;;;;;4973469;28;20089;-69
2021/04/03 03:14:41;;;;;;;29.90;18.65;;;;;;;;;;4975498;28;19925;-69
2021/04/03 03:17:09;;;;;;;28.75;18.55;;;;;;;;;;4980731;28;20130;-66
2021/04/03 03:19:36;;;;;;;27.50;18.08;;;;;;;;;;4980803;28;20050;-67
2021/04/03 03:22:03;;;;;;;31.50;19.02;;;;;;;;;;4981660;28;20046;-68
2021/04/03 03:24:29;;;;;;;26.33;17.55;;;;;;;;;;4979504;28;20022;-68
2021/04/03 03:26:55;;;;;;;27.25;18.00;;;;;;;;;;4976513;28;20035;-68
2021/04/03 03:29:23;;;;;;;31.02;19.42;;;;;;;;;;4976304;28;20027;-67
2021/04/03 03:31:49;;;;;;;30.25;18.75;;;;;;;;;;4974426;28;20547;-63
2021/04/03 03:34:15;;;;;;;29.85;18.30;;;;;;;;;;4975798;28;20058;-62
2021/04/03 03:36:41;;;;;;;26.30;17.17;;;;;;;;;;4976478;28;20055;-63
2021/04/03 03:39:09;;;;;;;29.02;18.15;;;;;;;;;;4976417;28;20026;-67
2021/04/03 03:41:36;;;;;;;27.83;19.00;;;;;;;;;;4976541;28;20070;-67
2021/04/03 03:44:03;;;;;;;31.63;18.75;;;;;;;;;;4976252;28;20022;-68
2021/04/03 03:46:29;;;;;;;29.15;19.10;;;;;;;;;;4976339;28;20130;-64
2021/04/03 03:48:55;;;;;;;29.63;19.65;;;;;;;;;;4975786;28;20031;-66
2021/04/03 03:51:21;;;;;;;31.30;19.52;;;;;;;;;;4975983;28;20077;-65
2021/04/03 03:53:47;;;;;;;31.30;18.33;;;;;;;;;;4975180;28;20038;-64
2021/04/03 03:56:14;;;;;;;32.55;19.73;;;;;;;;;;4975927;28;20038;-64
2021/04/03 03:58:41;;;;;;;33.53;19.15;;;;;;;;;;4975002;28;20406;-64
2021/04/03 04:01:07;;;;;;;31.35;19.85;;;;;;;;;;4975735;28;20528;-65
2021/04/03 04:03:33;;;;;;;37.80;22.20;;;;;;;;;;4975806;28;20110;-66
2021/04/03 04:06:00;;;;;;;37.72;23.30;;;;;;;;;;4975716;28;20023;-61
2021/04/03 04:08:26;;;;;;;33.38;21.60;;;;;;;;;;4975122;28;20053;-65
2021/04/03 04:10:53;;;;;;;36.40;19.63;;;;;;;;;;4975910;28;20018;-63
2021/04/03 04:13:19;;;;;;;37.72;21.38;;;;;;;;;;4975467;28;20023;-67
2021/04/03 04:15:45;;;;;;;36.20;19.83;;;;;;;;;;4975413;28;20079;-64
2021/04/03 04:18:11;;;;;;;34.08;20.38;;;;;;;;;;4975550;28;20023;-67
2021/04/03 04:20:38;;;;;;;34.85;19.00;;;;;;;;;;4975662;28;20035;-64
2021/04/03 04:23:04;;;;;;;31.50;19.33;;;;;;;;;;4975561;28;20042;-65
2021/04/03 04:25:30;;;;;;;35.63;20.00;;;;;;;;;;4975515;28;20034;-66
2021/04/03 04:27:56;;;;;;;35.97;21.30;;;;;;;;;;4974583;28;20031;-70
2021/04/03 04:30:22;;;;;;;34.00;19.85;;;;;;;;;;4975428;28;20154;-66
2021/04/03 04:32:49;;;;;;;37.15;21.45;;;;;;;;;;4975086;28;20018;-66
2021/04/03 04:35:15;;;;;;;32.33;17.58;;;;;;;;;;4975270;28;20035;-68
2021/04/03 04:37:41;;;;;;;33.78;19.05;;;;;;;;;;4974967;28;20465;-71
2021/04/03 04:40:09;;;;;;;33.13;18.17;;;;;;;;;;4975286;28;20023;-66
2021/04/03 04:42:35;;;;;;;31.85;19.30;;;;;;;;;;4975601;28;20041;-60
2021/04/03 04:45:01;;;;;;;32.13;18.77;;;;;;;;;;4976191;28;20522;-73
2021/04/03 04:47:27;;;;;;;30.85;18.23;;;;;;;;;;4973289;28;20047;-62
2021/04/03 04:49:53;;;;;;;27.98;18.00;;;;;;;;;;4974789;28;20354;-74
2021/04/03 04:52:20;;;;;;;31.83;17.48;;;;;;;;;;4975282;28;20041;-69
2021/04/03 04:54:46;;;;;;;33.67;19.80;;;;;;;;;;4975004;28;20027;-70
2021/04/03 04:57:12;;;;;;;30.45;17.70;;;;;;;;;;4975244;28;20070;-74
2021/04/03 04:59:39;;;;;;;33.67;18.33;;;;;;;;;;4974692;28;20126;-66
2021/04/03 05:02:05;;;;;;;29.38;17.80;;;;;;;;;;4975147;28;20023;-74
2021/04/03 05:04:31;;;;;;;31.73;18.40;;;;;;;;;;4977134;28;20023;-72
2021/04/03 05:06:57;;;;;;;29.20;18.02;;;;;;;;;;4978357;28;20050;-72
2021/04/03 05:09:23;;;;;;;27.48;16.52;;;;;;;;;;4978987;28;20023;-68
2021/04/03 05:11:49;;;;;;;27.00;16.20;;;;;;;;;;4979892;28;20037;-65
2021/04/03 05:14:15;;;;;;;28.35;17.00;;;;;;;;;;4980470;28;20081;-68
2021/04/03 05:16:41;;;;;;;35.22;17.13;;;;;;;;;;4979121;28;20109;-70
2021/04/03 05:19:07;;;;;;;28.13;17.27;;;;;;;;;;4977483;28;20026;-73
2021/04/03 05:21:33;;;;;;;27.88;17.17;;;;;;;;;;4974730;28;20477;-73
2021/04/03 05:23:59;;;;;;;28.90;17.55;;;;;;;;;;4975952;28;20461;-70
2021/04/03 05:26:25;;;;;;;31.92;19.55;;;;;;;;;;4974921;28;20031;-69
2021/04/03 05:28:51;;;;;;;35.35;19.63;;;;;;;;;;4975781;28;20030;-74
2021/04/03 05:31:21;;;;;;;37.08;19.60;;;;;;;;;;4973734;28;20041;-65
2021/04/03 05:33:48;;;;;;;35.38;19.13;;;;;;;;;;4969656;28;20031;-71
2021/04/03 05:36:14;;;;;;;37.78;19.65;;;;;;;;;;4967490;28;20046;-75
2021/04/03 05:38:40;;;;;;;38.28;21.33;;;;;;;;;;4976783;28;20480;-65
2021/04/03 05:41:06;;;;;;;37.55;19.58;;;;;;;;;;4978133;28;20757;-67
2021/04/03 05:43:34;;;;;;;35.22;19.75;;;;;;;;;;4975542;28;20019;-73
2021/04/03 05:46:00;;;;;;;37.80;20.50;;;;;;;;;;4980655;28;20059;-63
2021/04/03 05:48:27;;;;;;;33.30;19.48;;;;;;;;;;4967196;28;20086;-77
2021/04/03 05:50:58;;;;;;;33.97;18.30;;;;;;;;;;4964084;28;20031;-69
2021/04/03 05:53:24;;;;;;;30.35;17.23;;;;;;;;;;4975824;28;20054;-70
2021/04/03 05:55:51;;;;;;;27.98;16.75;;;;;;;;;;4977469;28;20043;-75
2021/04/03 05:58:18;;;;;;;28.85;15.52;;;;;;;;;;4976350;28;20070;-70
2021/04/03 06:00:44;;;;;;;26.65;15.02;;;;;;;;;;4986893;28;20459;-72
2021/04/03 06:03:10;;;;;;;23.75;14.35;;;;;;;;;;4974651;28;20073;-70
2021/04/03 06:05:37;;;;;;;26.00;15.40;;;;;;;;;;4974637;28;20030;-67
2021/04/03 06:08:03;;;;;;;24.08;15.80;;;;;;;;;;4974830;28;20019;-70
2021/04/03 06:10:29;;;;;;;28.63;15.70;;;;;;;;;;4973656;28;20119;-72
2021/04/03 06:12:55;;;;;;;26.30;15.73;;;;;;;;;;4973841;28;20030;-72
2021/04/03 06:15:33;;;;;;;27.55;15.48;;;;;;;;;;4973085;28;20038;-68
2021/04/03 06:18:00;;;;;;;22.13;14.57;;;;;;;;;;4973696;28;20109;-72
2021/04/03 06:20:34;;;;;;;24.50;13.93;;;;;;;;;;4973684;28;20034;-71
2021/04/03 06:23:00;;;;;;;20.17;13.30;;;;;;;;;;4973486;28;20377;-65
2021/04/03 06:25:26;;;;;;;21.15;13.07;;;;;;;;;;4972626;28;20067;-66
2021/04/03 06:28:08;;;;;;;21.08;12.02;;;;;;;;;;4988457;28;20035;-72
2021/04/03 06:30:38;;;;;;;22.50;13.93;;;;;;;;;;4973437;28;20027;-69
2021/04/03 06:33:13;;;;;;;20.17;12.82;;;;;;;;;;4973439;28;20023;-72
2021/04/03 06:35:39;;;;;;;21.42;12.48;;;;;;;;;;4973581;28;20077;-70
2021/04/03 06:38:24;;;;;;;18.90;12.15;;;;;;;;;;4973611;28;20031;-72
2021/04/03 06:40:51;;;;;;;21.50;13.45;;;;;;;;;;4973753;28;20029;-69
2021/04/03 06:43:18;;;;;;;22.63;14.02;;;;;;;;;;4972239;28;20455;-67
2021/04/03 06:45:45;;;;;;;20.05;12.70;;;;;;;;;;4973802;28;20385;-64
2021/04/03 06:48:12;;;;;;;22.02;13.70;;;;;;;;;;4971907;28;20027;-69
2021/04/03 06:50:46;;;;;;;24.90;14.40;;;;;;;;;;4975662;28;20027;-68
2021/04/03 06:53:19;;;;;;;23.55;14.43;;;;;;;;;;4976557;28;20038;-69
2021/04/03 06:55:47;;;;;;;24.95;16.25;;;;;;;;;;4976427;28;20101;-71
2021/04/03 06:58:13;;;;;;;28.83;17.52;;;;;;;;;;4976852;28;20364;-62
2021/04/03 07:00:40;;;;;;;27.27;16.77;;;;;;;;;;4976560;28;20037;-70
2021/04/03 07:03:10;;;;;;;25.73;15.75;;;;;;;;;;4976441;28;20026;-66
2021/04/03 07:05:37;;;;;;;28.98;16.52;;;;;;;;;;4976290;28;20027;-68
2021/04/03 07:08:04;;;;;;;20.25;13.27;;;;;;;;;;4976447;28;20050;-70
2021/04/03 07:10:31;;;;;;;24.15;14.52;;;;;;;;;;4976423;28;20465;-70
2021/04/03 07:12:58;;;;;;;22.17;13.40;;;;;;;;;;4976240;28;20027;-70
2021/04/03 07:15:24;;;;;;;23.70;14.75;;;;;;;;;;4976022;28;20027;-70
2021/04/03 07:17:51;;;;;;;23.45;14.43;;;;;;;;;;4974398;28;20027;-71
2021/04/03 07:20:18;;;;;;;22.35;13.23;;;;;;;;;;4975366;28;20050;-66
2021/04/03 07:22:46;;;;;;;23.50;15.15;;;;;;;;;;4976069;28;20120;-67
2021/04/03 07:25:13;;;;;;;25.27;16.02;;;;;;;;;;4975567;28;20481;-72
2021/04/03 07:27:43;;;;;;;26.48;16.55;;;;;;;;;;4975589;28;20027;-68
2021/04/03 07:30:10;;;;;;;26.83;15.63;;;;;;;;;;4974060;28;20392;-70
2021/04/03 07:32:40;;;;;;;27.33;15.70;;;;;;;;;;4965026;28;20018;-67
2021/04/03 07:35:22;;;;;;;27.25;14.80;;;;;;;;;;4975642;28;20019;-66
2021/04/03 07:37:49;;;;;;;26.98;16.13;;;;;;;;;;4974963;28;20112;-68
2021/04/03 07:40:32;;;;;;;25.83;15.77;;;;;;;;;;4975252;28;20086;-71
2021/04/03 07:42:58;;;;;;;24.88;15.13;;;;;;;;;;4973728;28;20031;-67
2021/04/03 07:45:30;;;;;;;19.25;13.65;;;;;;;;;;4976685;28;20030;-63
2021/04/03 07:47:57;;;;;;;23.98;15.25;;;;;;;;;;4975415;28;20035;-67
2021/04/03 07:50:52;;;;;;;24.27;15.13;;;;;;;;;;4976318;28;20030;-67
2021/04/03 07:53:39;;;;;;;25.65;15.32;;;;;;;;;;4973068;28;20037;-68
2021/04/03 07:56:06;;;;;;;26.02;14.85;;;;;;;;;;4936258;28;20035;-66
2021/04/03 07:58:34;;;;;;;20.75;14.43;;;;;;;;;;4971936;28;20114;-73
2021/04/03 08:01:02;;;;;;;23.35;16.40;;;;;;;;;;4968243;28;20031;-70
2021/04/03 08:03:28;;;;;;;24.07;15.00;;;;;;;;;;4966219;28;20035;-64
2021/04/03 08:05:59;;;;;;;24.35;15.10;;;;;;;;;;4970652;28;20558;-66
2021/04/03 08:08:26;;;;;;;26.60;15.55;;;;;;;;;;4970357;28;20015;-64
2021/04/03 08:11:06;;;;;;;24.25;15.32;;;;;;;;;;4970176;28;20046;-65
2021/04/03 08:13:32;;;;;;;23.73;15.50;;;;;;;;;;4972418;28;20019;-69
2021/04/03 08:16:01;;;;;;;25.58;15.10;;;;;;;;;;4970981;28;20042;-67
2021/04/03 08:18:30;;;;;;;24.35;15.52;;;;;;;;;;4972025;28;20469;-68
2021/04/03 08:20:56;;;;;;;;;;;;;;;;;;4970481;28;20136;-71
2021/04/03 08:23:34;;;;;;;24.23;14.93;;;;;;;;;;4971591;28;19913;-69
2021/04/03 08:26:01;;;;;;;22.53;14.73;;;;;;;;;;4971234;28;20037;-68
2021/04/03 08:28:27;;;;;;;23.38;13.98;;;;;;;;;;4970022;28;20023;-70
2021/04/03 08:30:53;;;;;;;23.83;15.68;;;;;;;;;;4974890;28;20111;-70
2021/04/03 08:33:20;;;;;;;23.73;15.02;;;;;;;;;;4974255;28;20066;-66
2021/04/03 08:35:47;;;;;;;23.88;15.57;;;;;;;;;;4972524;28;20035;-66
2021/04/03 08:38:13;;;;;;;26.15;15.93;;;;;;;;;;4957530;28;20099;-68
2021/04/03 08:40:40;;;;;;;25.67;15.95;;;;;;;;;;4967236;28;20027;-68
2021/04/03 08:43:06;;;;;;;20.10;14.38;;;;;;;;;;4975216;28;20027;-69
2021/04/03 08:45:42;;;;;;;26.38;15.55;;;;;;;;;;4975254;28;20026;-65
2021/04/03 08:48:08;;;;;;;25.83;16.00;;;;;;;;;;4973151;28;20030;-69
2021/04/03 08:50:35;;;;;;;20.92;14.70;;;;;;;;;;4968008;28;20474;-64
2021/04/03 08:53:01;;;;;;;21.08;13.23;;;;;;;;;;4970678;28;20031;-70
2021/04/03 08:55:28;;;;;;;20.33;13.98;;;;;;;;;;4962760;28;20035;-70
2021/04/03 08:57:55;;;;;;;18.90;12.60;;;;;;;;;;4975477;28;20046;-73
2021/04/03 09:00:22;;;;;;;21.88;12.10;;;;;;;;;;4972648;28;20250;-68
2021/04/03 09:02:49;;;;;;;23.02;13.30;;;;;;;;;;4975335;28;20031;-68
2021/04/03 09:05:16;;;;;;;21.65;13.70;;;;;;;;;;4974632;28;20520;-71
2021/04/03 09:07:42;;;;;;;17.63;12.90;;;;;;;;;;4973586;28;20393;-68
2021/04/03 09:10:25;;;;;;;18.48;12.57;;;;;;;;;;4975346;28;20019;-72
2021/04/03 09:12:52;;;;;;;17.77;12.98;;;;;;;;;;4975636;28;20030;-67
2021/04/03 09:15:29;;;;;;;19.17;11.85;;;;;;;;;;4975064;28;20041;-68
2021/04/03 09:17:56;;;;;;;18.00;12.50;;;;;;;;;;4975513;28;20038;-70
2021/04/03 09:20:24;;;;;;;20.43;12.70;;;;;;;;;;4975727;28;20050;-67
2021/04/03 09:22:51;;;;;;;19.98;13.02;;;;;;;;;;4975186;28;20035;-67
2021/04/03 09:25:18;;;;;;;16.40;11.57;;;;;;;;;;4976988;28;20082;-70
2021/04/03 09:27:58;;;;;;;17.60;11.23;;;;;;;;;;4986297;28;20482;-67
2021/04/03 09:30:30;;;;;;;16.50;12.25;;;;;;;;;;4974636;28;20050;-68
2021/04/03 09:32:56;;;;;;;19.63;13.00;;;;;;;;;;4975792;28;20034;-66
2021/04/03 09:35:25;;;;;;;16.05;11.65;;;;;;;;;;4975910;28;20046;-67
2021/04/03 09:37:58;;;;;;;19.52;12.80;;;;;;;;;;4973214;28;20469;-68
2021/04/03 09:40:38;;;;;;;16.63;10.88;;;;;;;;;;4973098;28;20147;-72
2021/04/03 09:43:04;;;;;;;17.80;11.48;;;;;;;;;;4974144;28;20022;-70
2021/04/03 09:45:30;;;;;;;17.40;12.07;;;;;;;;;;4974399;28;20034;-69
2021/04/03 09:47:57;;;;;;;18.55;12.82;;;;;;;;;;4972978;28;20110;-70
2021/04/03 09:50:24;;;;;;;19.25;11.63;;;;;;;;;;4973685;28;20504;-68
2021/04/03 09:52:50;;;;;;;15.68;11.40;;;;;;;;;;4974002;28;20405;-70
2021/04/03 09:55:16;;;;;;;15.30;10.75;;;;;;;;;;4973922;28;20027;-73
2021/04/03 09:57:42;;;;;;;15.93;10.77;;;;;;;;;;4974003;28;20149;-72
2021/04/03 10:00:09;;;;;;;15.48;10.18;;;;;;;;;;4973807;28;20030;-71
2021/04/03 10:02:35;;;;;;;16.73;10.02;;;;;;;;;;4974053;28;20113;-72
2021/04/03 10:05:02;;;;;;;12.80;9.57;;;;;;;;;;4970156;28;20023;-67
2021/04/03 10:07:28;;;;;;;15.40;10.88;;;;;;;;;;4973868;28;20031;-64
2021/04/03 10:09:54;;;;;;;12.32;9.20;;;;;;;;;;4973160;28;20187;-74
2021/04/03 10:12:20;;;;;;;14.57;10.95;;;;;;;;;;4974258;28;20051;-72
2021/04/03 10:14:46;;;;;;;17.20;9.98;;;;;;;;;;4973777;28;20485;-73
2021/04/03 10:17:12;;;;;;;13.38;9.77;;;;;;;;;;4975328;28;20521;-69
2021/04/03 10:19:38;;;;;;;14.35;9.98;;;;;;;;;;4975151;28;20033;-75
2021/04/03 10:22:04;;;;;;;14.35;10.15;;;;;;;;;;4976396;28;20023;-73
2021/04/03 10:24:31;;;;;;;16.42;9.80;;;;;;;;;;4976813;28;20065;-77
2021/04/03 10:26:57;;;;;;;12.63;10.15;;;;;;;;;;4975419;28;20027;-73
2021/04/03 10:29:23;;;;;;;18.73;10.85;;;;;;;;;;4974345;28;20038;-64
2021/04/03 10:31:49;;;;;;;14.18;10.45;;;;;;;;;;4969890;28;20042;-71
2021/04/03 10:34:15;;;;;;;15.43;10.45;;;;;;;;;;4972736;28;20022;-64
2021/04/03 10:36:41;;;;;;;14.32;11.27;;;;;;;;;;4973244;28;20031;-58
2021/04/03 10:39:09;;;;;;;13.65;10.15;;;;;;;;;;4972236;28;20022;-57
2021/04/03 10:41:36;;;;;;;16.98;11.05;;;;;;;;;;4972768;28;20058;-59
2021/04/03 10:44:03;;;;;;;18.75;11.75;;;;;;;;;;4971551;28;20038;-61
2021/04/03 10:46:29;;;;;;;15.93;10.60;;;;;;;;;;4969300;28;20215;-60
2021/04/03 10:48:55;;;;;;;18.88;10.95;;;;;;;;;;4971803;28;20038;-62
2021/04/03 10:51:21;;;;;;;16.65;11.43;;;;;;;;;;4971134;28;20034;-61
2021/04/03 10:53:47;;;;;;;14.98;11.23;;;;;;;;;;4969881;28;20037;-60
2021/04/03 10:56:13;;;;;;;17.42;12.13;;;;;;;;;;4971937;28;20034;-58
2021/04/03 10:58:39;;;;;;;17.10;12.73;;;;;;;;;;4971207;28;20037;-61
2021/04/03 11:01:05;;;;;;;17.77;11.32;;;;;;;;;;4973188;28;20388;-61
2021/04/03 11:03:31;;;;;;;17.15;11.75;;;;;;;;;;4971598;28;20064;-61
2021/04/03 11:05:57;;;;;;;18.40;12.73;;;;;;;;;;4966167;28;20023;-61
2021/04/03 11:08:23;;;;;;;17.63;12.98;;;;;;;;;;4971938;28;21278;-61
2021/04/03 11:10:49;;;;;;;15.90;10.95;;;;;;;;;;4961766;28;20031;-61
2021/04/03 11:13:15;;;;;;;13.32;9.90;;;;;;;;;;4968058;28;20118;-60
2021/04/03 11:15:41;;;;;;;13.40;8.95;;;;;;;;;;4972244;28;20053;-60
2021/04/03 11:18:07;;;;;;;11.95;8.98;;;;;;;;;;4972328;28;20059;-58
2021/04/03 11:20:33;;;;;;;11.00;7.72;;;;;;;;;;4971987;28;20031;-60
2021/04/03 11:23:00;;;;;;;12.27;9.35;;;;;;;;;;4963650;28;20038;-62
2021/04/03 11:25:26;;;;;;;13.85;8.35;;;;;;;;;;4969537;28;20106;-61
2021/04/03 11:27:52;;;;;;;10.70;7.35;;;;;;;;;;4973944;28;20037;-61
2021/04/03 11:30:18;;;;;;;13.13;8.70;;;;;;;;;;4972303;28;20143;-58
2021/04/03 11:32:49;;;;;;;10.75;7.90;;;;;;;;;;4972955;28;20083;-60
2021/04/03 11:35:16;;;;;;;11.18;8.00;;;;;;;;;;4977574;28;20130;-62
2021/04/03 11:37:42;;;;;;;9.90;8.02;;;;;;;;;;4977995;28;20037;-61
2021/04/03 11:40:08;;;;;;;11.98;8.40;;;;;;;;;;4976570;28;20033;-61
2021/04/03 11:42:35;;;;;;;14.00;8.77;;;;;;;;;;4976141;28;20369;-60
2021/04/03 11:45:01;;;;;;;12.93;9.52;;;;;;;;;;4979804;28;20023;-60
2021/04/03 11:47:27;;;;;;;10.50;8.65;;;;;;;;;;4975229;28;20038;-60
2021/04/03 11:49:56;;;;;;;14.25;9.35;;;;;;;;;;4975976;28;20030;-62
2021/04/03 11:52:22;;;;;;;;;;;;;;;;;;4975844;28;20085;-57
2021/04/03 11:54:48;;;;;;;13.30;8.23;;;;;;;;;;4975521;28;19906;-59
2021/04/03 11:57:14;;;;;;;70.00;61.03;;;;;;;;;;4974978;28;20039;-58
2021/04/03 11:59:41;;;;;;;15.73;11.50;;;;;;;;;;4974585;28;20022;-58
2021/04/03 12:02:07;;;;;;;16.73;10.40;;;;;;;;;;4976105;28;20039;-62
2021/04/03 12:04:33;;;;;;;17.05;9.93;;;;;;;;;;4976185;28;20102;-59
2021/04/03 12:06:59;;;;;;;16.67;9.35;;;;;;;;;;4975476;28;20112;-58
2021/04/03 12:09:25;;;;;;;15.82;11.80;;;;;;;;;;4975460;28;20058;-60
2021/04/03 12:11:51;;;;;;;19.00;10.32;;;;;;;;;;4975661;28;20110;-58
2021/04/03 12:14:17;;;;;;;16.73;10.50;;;;;;;;;;4975080;28;20508;-58
2021/04/03 12:16:43;;;;;;;16.42;11.20;;;;;;;;;;4971823;28;20081;-59
2021/04/03 12:19:09;;;;;;;17.13;10.85;;;;;;;;;;4971701;28;20039;-58
2021/04/03 12:21:35;;;;;;;14.68;9.85;;;;;;;;;;4975170;28;20042;-56
2021/04/03 12:24:01;;;;;;;12.32;8.90;;;;;;;;;;4972988;28;20023;-56
2021/04/03 12:26:27;;;;;;;14.82;8.75;;;;;;;;;;4975324;28;20515;-57
2021/04/03 12:28:53;;;;;;;15.50;10.43;;;;;;;;;;4975512;28;20038;-56
2021/04/03 12:31:19;;;;;;;14.35;9.65;;;;;;;;;;4974908;28;20062;-58
2021/04/03 12:33:46;;;;;;;16.55;10.13;;;;;;;;;;4975300;28;20085;-58
2021/04/03 12:36:12;;;;;;;13.77;9.23;;;;;;;;;;4974226;28;20069;-59
2021/04/03 12:38:38;;;;;;;15.43;9.52;;;;;;;;;;4974663;28;20041;-57
2021/04/03 12:41:04;;;;;;;15.70;10.18;;;;;;;;;;4973753;28;20082;-59
2021/04/03 12:43:30;;;;;;;16.38;9.75;;;;;;;;;;4973991;28;20465;-56
2021/04/03 12:45:56;;;;;;;15.88;11.52;;;;;;;;;;4975965;28;20026;-59
2021/04/03 12:48:23;;;;;;;14.77;10.45;;;;;;;;;;4975719;28;20099;-57
2021/04/03 12:50:49;;;;;;;14.52;10.70;;;;;;;;;;4975204;28;20489;-60
2021/04/03 12:53:16;;;;;;;17.13;11.18;;;;;;;;;;4975002;28;20026;-56
2021/04/03 12:55:42;;;;;;;19.70;11.40;;;;;;;;;;4975926;28;20027;-57
2021/04/03 12:58:08;;;;;;;14.07;8.75;;;;;;;;;;4973564;28;20077;-56
2021/04/03 13:00:34;;;;;;;14.90;9.93;;;;;;;;;;4968592;28;20023;-59
2021/04/03 13:03:00;;;;;;;15.60;10.25;;;;;;;;;;4959905;28;20037;-56
2021/04/03 13:05:27;;;;;;;12.77;9.25;;;;;;;;;;4970913;28;20033;-58
2021/04/03 13:07:53;;;;;;;12.75;9.02;;;;;;;;;;4954665;28;20031;-56
2021/04/03 13:10:19;;;;;;;15.95;10.68;;;;;;;;;;4969453;28;20454;-57
2021/04/03 13:12:45;;;;;;;16.23;10.27;;;;;;;;;;4972357;28;20031;-56
2021/04/03 13:15:12;;;;;;;13.98;10.25;;;;;;;;;;4971562;28;20110;-56
2021/04/03 13:17:38;;;;;;;13.75;9.38;;;;;;;;;;4971850;28;20050;-54
2021/04/03 13:20:04;;;;;;;14.70;10.32;;;;;;;;;;4972398;28;20015;-57
2021/04/03 13:22:30;;;;;;;16.38;11.32;;;;;;;;;;4972480;28;20085;-54
2021/04/03 13:24:56;;;;;;;12.95;9.50;;;;;;;;;;4971497;28;20030;-57
2021/04/03 13:27:23;;;;;;;15.07;10.55;;;;;;;;;;4970810;28;20034;-57
2021/04/03 13:29:53;;;;;;;13.77;10.35;;;;;;;;;;4970789;28;20055;-55
2021/04/03 13:32:19;;;;;;;15.07;10.63;;;;;;;;;;4969272;28;20015;-54
2021/04/03 13:34:45;;;;;;;14.68;10.02;;;;;;;;;;4966229;28;20078;-55
2021/04/03 13:37:11;;;;;;;13.02;9.50;;;;;;;;;;4970202;28;20043;-57
2021/04/03 13:39:38;;;;;;;14.20;9.98;;;;;;;;;;4970057;28;20023;-57
2021/04/03 13:42:04;;;;;;;13.48;10.65;;;;;;;;;;4970371;28;20015;-51
2021/04/03 13:44:30;;;;;;;15.75;10.10;;;;;;;;;;4970355;28;20023;-53
2021/04/03 13:46:57;;;;;;;13.63;9.65;;;;;;;;;;4971193;28;20082;-54
2021/04/03 13:49:23;;;;;;;14.55;9.43;;;;;;;;;;4967742;28;20473;-52
2021/04/03 13:51:49;;;;;;;14.10;9.88;;;;;;;;;;4970510;28;20027;-56
2021/04/03 13:54:15;;;;;;;15.10;9.70;;;;;;;;;;4970254;28;20261;-53
2021/04/03 13:56:41;;;;;;;12.23;9.90;;;;;;;;;;4972394;28;20568;-58
2021/04/03 14:09:20;;;;;;;14.20;10.25;;;;;;;;;;5024059;23;20061;-58
2021/04/03 14:11:46;;;;;;;14.18;9.30;;;;;;;;;;5029588;28;20484;-58
2021/04/03 14:14:12;;;;;;;12.13;9.13;;;;;;;;;;5027267;28;20087;-58
2021/04/03 14:16:38;;;;;;;14.23;9.95;;;;;;;;;;5026662;28;20030;-58
2021/04/03 14:19:04;;;;;;;13.45;9.57;;;;;;;;;;5026029;28;20034;-61
2021/04/03 14:21:31;;;;;;;14.27;9.63;;;;;;;;;;5027892;28;20032;-58
2021/04/03 14:23:57;;;;;;;19.70;14.15;;;;;;;;;;5029085;28;20018;-61
2021/04/03 14:26:23;;;;;;;13.52;10.63;;;;;;;;;;5022733;28;20038;-62
2021/04/03 14:28:49;;;;;;;15.18;10.20;;;;;;;;;;5028119;28;20034;-57
2021/04/03 14:31:16;;;;;;;12.18;9.25;;;;;;;;;;5030612;28;20064;-55
2021/04/03 14:33:42;;;;;;;15.90;9.98;;;;;;;;;;5033619;28;20106;-56